ELIMINATOR 2019 - KLASYFIKACJA KOŃCOWA PEŁNA WG MIEJSC
Eliminator 2019
Organizator : Fundacja Bieg Rzeźnika
Data : 2019-06-08
Miejsce : Ustroń
Dystans : 1.7 km
Zgłoszonych : 204
Wystartowało : 176
Nie ukończyło : 0
Ukończyło : 176
Na trasie : 0
Pełne wyniki :
Uproszczone :
Klasyfikacje w punktach pomiarowych: Start | 0.9km | Meta
Klasyfikacje wg kategorii: Wszyscy | K Open | M Open | K20 | M20 | K30 | M30 | K40 | M40 | K50 | M50 | K60 | M60
Klasyfikacja wg czasu brutto. Wyniki nieoficjalne !!!
MscZawodnikNumerKlubMiejscowośćKrajKategoriaMkatK/MCzas startuPolowka_Eli
0.9km
Czas
netto
1.7km
Czas
brutto
1.7km
Różn.Tempo
min/km
Tempo
km/h
        
1LEPIARZ Sylwester 2002LKB RudnikWRONÓWM201M 100:00:0000:15:59.8000:15:59.80 9:246,4
2MISIAK Bartosz 2147Alpin Sport HOKA One One TeamCESKY TESINM301M 200:00:0000:16:37.5500:16:37.55+00:00:379:466,1
3BIERNAWSKI Piotr 2004ATTIQ Team/SalmingNOWY TARGM401M 300:00:0000:16:57.7000:16:57.70+00:00:579:586,0
4JAŚTAL Piotr 2126LKB Rudnik/AZS UJK KielceDOMASZOWICEM202M 400:00:0000:17:09.9000:17:09.90+00:01:1010:055,9
5SKUPIEŃ Tomasz 2003MUAY RUNNING TEAMSKAWINKIM302M 500:00:0000:17:16.0500:17:16.05+00:01:1610:095,9
6GAWLAS Dominik 2007Uzdrowiskowy TeamCIESZYNM303M 600:00:0000:17:19.4500:17:19.45+00:01:1910:115,9
7JAWORSKI Zbigniew 2146...KLUSZKOWCEM402M 700:00:0000:17:39.7500:17:39.75+00:01:3910:225,8
8BROJ Marcel 2142BROJ TEAM ŹLINICEŹLINICEM203M 800:00:0000:17:43.9500:17:43.95+00:01:4410:255,8
9KOZIOŁ Kamil 2136G.O.A.T. Team / MŁYN Trail MichałowiceMICHAŁOWICEM204M 900:00:0000:18:24.2500:18:24.25+00:02:2410:495,5
10HUZIOR Piotr 2162PTTIQNOWY TARGM403M 1000:00:0000:18:45.6500:18:45.65+00:02:4511:015,4
11KAPAON Łazarz 2020Cazzo Club Running Team/Runtata.plWARSZAWAM205M 1100:00:0000:18:56.0500:18:56.05+00:02:5611:085,4
12KUBACZKA Grzegorz 2091www.ag-architekci.plSKOCZÓWM304M 1200:00:0000:19:14.7500:19:14.75+00:03:1411:185,3
13FABIAN Marcel 2135SOCIOS SILESIAPYSKOWICEM206M 1300:00:0000:19:28.5500:19:28.55+00:03:2811:275,2
14BEDNARZ Adam 2016KS Żeglina SieradzZŁOCZEWM207M 1400:00:0000:19:44.6000:19:44.60+00:03:4411:365,2
15BUCZYŃSKI Adam 2024Non Stop TrailKRAKÓWM404M 1500:00:0000:19:49.3000:19:49.30+00:03:4911:395,1
16SOKOŁOWSKI Marek 2006Alpin Sport HOKA One One TeamMYSŁOWICE-WESOŁAM501M 1600:00:0000:20:06.8500:20:06.85+00:04:0711:495,1
17DYCZEK Mariusz 2022Dyczuś TeamZDZIESZOWICEM405M 1700:00:0000:20:09.1500:20:09.15+00:04:0911:515,1
18URBAŃCZYK Karol 2044GLIWICEM208M 1800:00:0000:20:15.0500:20:15.05+00:04:1511:545,0
19ZAKOWICZ Paweł 2144Piechotą po Schodach - ŁódźHALINÓWM305M 1900:00:0000:20:38.8000:20:38.80+00:04:3912:084,9
20BADURA Adam 2153Forma Wodzisław ŚląskiRYBNIKM406M 2000:00:0000:20:43.4000:20:43.40+00:04:4312:114,9
21FLISIŃSKI Łukasz 2071SOSNOWIECM306M 2100:00:0000:20:47.0500:20:47.05+00:04:4712:134,9
22MAGIERA Janusz 2005FORMA WODZISŁAW ŚLĄSKIWODZISŁAW ŚLĄSKIM502M 2200:00:0000:20:53.8000:20:53.80+00:04:5412:174,9
23MALINOWSKI Mateusz 2012MYSŁOWICEM307M 2300:00:0000:21:00.5000:21:00.50+00:05:0012:214,9
24JAKIEŁA Michał 2143KRAKÓWM308M 2400:00:0000:21:02.6500:21:02.65+00:05:0212:224,8
25KURYŁO Jakub 2092AUGUSTÓWM209M 2500:00:0000:21:13.5000:21:13.50+00:05:1312:284,8
26KORCZ Daniel 2161Jaworzno RunnersJAWORZNOM407M 2600:00:0000:21:16.6000:21:16.60+00:05:1612:304,8
27TOKAREWICZ Damian 2041ZebryZEBRZYDOWICEM309M 2700:00:0000:21:19.6500:21:19.65+00:05:1912:324,8
28TARGOSZ Michał Mateusz 2123FISI Compressport NB TeamKRAKÓWM3010M 2800:00:0000:21:31.4000:21:31.40+00:05:3112:394,7
29SNARSKI Dariusz 2060WATAHA-łączy nas bieganieKATOWICEM408M 2900:00:0000:21:32.3500:21:32.35+00:05:3212:404,7
30SZAFRANEK Paweł 2069Biegiem przez ChybieUSTROŃM2010M 3000:00:0000:22:09.7000:22:09.70+00:06:0913:014,6
31KUŚMIERSKI Michał 2038No i?BIELSKO-BIAŁAM409M 3100:00:0000:10:4400:22:29.2000:22:29.20+00:06:2913:134,5
32GRUND Marek 2011Mafia TEAM LubliniecSTRZEBIŃM3011M 3200:00:0000:22:35.0000:22:35.00+00:06:3513:174,5
33WIECZOREK Damian 2131UzdrowiskoKATOWICEM4010M 3300:00:0000:10:2000:22:52.5000:22:52.50+00:06:5213:274,5
34FIJAK Jan 2054SIENNAM4011M 3400:00:0000:10:2200:23:34.8500:23:34.85+00:07:3513:514,3
35SZKODA Dariusz 2164Socios SilesiaRUDA ŚLĄSKAM3012M 3500:00:0000:12:0200:26:19.1000:26:19.10+00:10:1915:283,9
36BRÓG Wojciech 2009OLKUSZM4012M 3600:00:0000:12:0200:26:24.4000:26:24.40+00:10:2415:313,9
37OŚLIZŁO Tomasz 2090Husaria Race TeamGORZYCEM3013M 3700:00:0000:08:3500:17:55.6500:17:55.65+00:01:5510:325,7
38OPOLONY Ireneusz 2165Socios SilesiaŁAŃCEM3014M 3800:00:0000:09:3000:20:46.6500:20:46.65+00:04:4612:124,9
39URBAN Mirosław 2021ITMBW KrakówKRAKÓWM3015M 3900:00:0000:10:1200:20:51.7500:20:51.75+00:04:5112:154,9
40MARTYNEK Jakub 2102SKI MostyMOSTY U JABLUNKOVAM2011M 4000:00:0000:09:5700:21:08.0000:21:08.00+00:05:0812:254,8
41GARCORZ Dawid 2014Mafia Team LubliniecDZIELNAM2012M 4100:00:0000:09:4300:21:22.7000:21:22.70+00:05:2212:344,8
42HECZKO Adam 2128Uzdrowiskowy TeamPOGWIZDÓWM3016M 4200:00:0000:09:4600:21:27.9000:21:27.90+00:05:2812:374,8
43PILSNIAK Krzysztof 2083LIBERTÓWM4013M 4300:00:0000:09:4400:21:30.7000:21:30.70+00:05:3012:384,7
44BUKOWSKI Marek 2081BYTOMM4014M 4400:00:0000:09:5100:21:41.1000:21:41.10+00:05:4112:454,7
45WASZTYL Tomasz 2085BIELSKO - BIAŁAM503M 4500:00:0000:09:5500:22:11.6000:22:11.60+00:06:1113:024,6
46OSETEK Paweł 2163Radlinioki w bieguPSZÓWM3017M 4600:00:0000:10:1100:22:15.0500:22:15.05+00:06:1513:054,6
47SZEWCZYK Damian 2080JEJKOWICEM4015M 4700:00:0000:10:1600:22:17.9500:22:17.95+00:06:1813:064,6
48OCHMAN Paweł 2111Future Processing Running TeamGLIWICEM3018M 4800:00:0000:10:4400:22:21.4500:22:21.45+00:06:2113:084,6
49URBAN Wiktor 2082Night Runners Zabrze / ZPBZABRZEM3019M 4900:00:0000:10:0000:22:26.2000:22:26.20+00:06:2613:114,5
50JAKUBCZYK Dariusz 2094CKBabcie/WoźniakRunningTeamPIEKOSZÓWM4016M 5000:00:0000:10:2000:22:35.2000:22:35.20+00:06:3513:174,5
51KROTLA Piotr 2121Triathlon Training CenterCZĘSTOCHOWAM3020M 5100:00:0000:10:2500:22:55.4000:22:55.40+00:06:5513:284,5
52MIZERA Krzysztof 2117KRAKÓWM3021M 5200:00:0000:10:2600:22:58.9500:22:58.95+00:06:5913:304,4
53CUDZIŁO Łukasz 2086X-MAN TEAMKIELCEM3022M 5300:00:0000:10:2800:23:16.7500:23:16.75+00:07:1613:414,4
54JARCZOK Zdzichu 2019Viking Training CenterŁAKAM3023M 5400:00:0000:10:2400:23:33.5500:23:33.55+00:07:3313:514,3
55DENICKI Przemysław 2113Kolej Linowa CzantoriaKNURÓWM2013M 5500:00:0000:10:4000:23:40.0500:23:40.05+00:07:4013:554,3
56ŁUKOSZ Tomasz 2109xXxUSTROŃM3024M 5600:00:0000:10:4900:23:55.7000:23:55.70+00:07:5514:044,3
57GRUSZKA Grzegorz 2049Endurance TeamSIEMIANOWICE ŚLĄSKIEM4017M 5700:00:0000:10:3800:24:12.0000:24:12.00+00:08:1214:144,2
58RAKSZAWA Krzysztof 2158RYBNIKM4018M 5800:00:0000:11:0700:24:21.3000:24:21.30+00:08:2114:194,2
59ZABEL Robert 2148zabel.plPOZNAŃM4019M 5900:00:0000:11:0100:25:11.4500:25:11.45+00:09:1114:484,1
60WOJNO Arkadiusz 2018Droga Do UltraŁÓDŹM3025M 6000:00:0000:11:4500:25:16.8500:25:16.85+00:09:1714:514,0
61MROWIEC Kacper 2098ŻYWIECM2014M 6100:00:0000:10:4100:26:00.6000:26:00.60+00:10:0015:173,9
62GAMZA Mariusz 2079Pędzące Żółwie ImiCZERWIONKA LESZCZYNYM3026M 6200:00:0000:11:1100:26:00.6500:26:00.65+00:10:0015:173,9
63MARKIEWICZ Karol 2096Biegam żeby żreć więcej ciastkówBIELSKO-BIAŁAM3027M 6300:00:0000:10:5600:26:08.8500:26:08.85+00:10:0915:223,9
64MARTYNEK Vladislav 2101SKI MostyMOSTY U JABLUNKOVAM601M 6400:00:0000:11:5400:26:14.4500:26:14.45+00:10:1415:253,9
65MAZUR Damian 2033SOCIOS SILESIARUDA ŚLĄSKAM3028M 6500:00:0000:12:1200:26:16.8000:26:16.80+00:10:1715:273,9
66KUKUCZKA Dominik 2035TrailRun KUKUCZKAJAWORZYNKAM2015M 6600:00:0000:10:4200:26:18.4500:26:18.45+00:10:1815:283,9
67STEFAŃCZUK Waldemar 2130Uzdrowisko UstrońKATOWICEM4020M 6700:00:0000:11:3000:26:19.3000:26:19.30+00:10:1915:283,9
68SOBOLA Grzegorz 2051RACIBÓRZM2016M 6800:00:0000:11:3400:26:22.4500:26:22.45+00:10:2215:303,9
69ŁASKI Mateusz 2013LANCKORONAM2017M 6900:00:0000:12:4600:27:05.7000:27:05.70+00:11:0515:553,8
70CHACHUŁA Ryszard 2030Dyczuś TeamZDZIESZOWICEM4021M 7000:00:0000:12:0900:27:30.6500:27:30.65+00:11:3016:103,7
71WÓJCICKI Kamil 2132RAJSPORT ACTIVE OPOLELISIĘCICEM2018M 7100:00:0000:12:2100:28:02.7500:28:02.75+00:12:0216:293,6
72DWORNICKI Tomasz 2104Rybnicka Grupa Biegowa Pędzimy RazemRYBNIKM4022M 7200:00:0000:12:4600:29:04.7500:29:04.75+00:13:0417:053,5
73MIKULSKI Michał 2138Gremi BochniaBOCHNIAM3029M 7300:00:0000:12:5300:29:05.1500:29:05.15+00:13:0517:063,5
74DOLNY Tomasz 2154M4023M 7400:00:0000:14:2900:35:58.4500:35:58.45+00:19:5821:092,8
75MAZUREK Roman 2084Spartanie DzieciomMURÓWM4024M 7500:00:0000:11:3300:24:18.5500:24:18.55+00:08:1814:174,2
76RYCERSKI Rafał 2156CZAPLINEKM3030M 7600:00:0000:10:5700:24:29.0500:24:29.05+00:08:2914:244,2
77NAGIEL Andrzej 2053Zabiegani CzęstochowaCZĘSTOCHOWAM4025M 7700:00:0000:11:2900:24:40.0000:24:40.00+00:08:4014:304,1
78MAŁKOWSKI Bogdan 2025SPARTANIE DZIECIOMMURÓWM504M 7800:00:0000:11:2300:24:50.9500:24:50.95+00:08:5114:364,1
79KADŁUBEK Aleksander 2047TKTJ/OSP Repty ŚląskieTARNOWSKIE GÓRYM3031M 7900:00:0000:11:4500:25:05.8000:25:05.80+00:09:0614:454,1
80GLOS Janusz 2137MIĘDZYŚWIEĆM3032M 8000:00:0000:11:2900:25:08.2500:25:08.25+00:09:0814:474,1
81BEDNARZ Sebastian 2037OTM.bOTMUCHÓWM4026M 8100:00:0000:11:2500:25:12.4000:25:12.40+00:09:1214:494,0
82SWOBODA Tomasz 2067Kurła kaj ta meta?!SZYMISZÓWM3033M 8200:00:0000:11:0900:25:21.9500:25:21.95+00:09:2214:544,0
83RYBIŃSKI Łukasz 2065EŁKA TeamRUDA ŚLĄSKAM3034M 8300:00:0000:11:1800:25:27.3500:25:27.35+00:09:2714:584,0
84MAZUREK Piotr 2116MCKiS JaworznoJAWORZNOM3035M 8400:00:0000:12:0700:25:31.0000:25:31.00+00:09:3115:004,0
85GAZDA Mariusz 2074KROSNOKROSNOM4027M 8500:00:0000:11:5100:25:34.0500:25:34.05+00:09:3415:024,0
86GREGORCZYK Marcin 2075Sts Biegaton MikołówMIKOŁÓWM4028M 8600:00:0000:11:2200:25:44.9500:25:44.95+00:09:4515:084,0
87DANIKIEWICZ Michał 2114Rozbiegamy To Miasto - Czechowice-DziedziceCZECHOWICE-DZIEDZICEM3036M 8700:00:0000:11:4100:25:46.7500:25:46.75+00:09:4615:094,0
88ORŁOWSKI Łukasz 2106Gołcza TeamGOŁCZAM4029M 8800:00:0000:12:3300:26:12.1000:26:12.10+00:10:1215:243,9
89WILK Tomasz 2029MomNaToCałeŻycieMIKOŁÓWM4030M 8900:00:0000:12:1200:26:17.6500:26:17.65+00:10:1715:273,9
90ZAJDEL Michał 2059SOCIOS SILESIARUDA ŚLĄSKAM4031M 9000:00:0000:12:0900:26:17.8500:26:17.85+00:10:1815:273,9
91KURYŁO Zenon 2036SBD Energetyk RybnikRYBNIKM505M 9100:00:0000:12:2200:26:21.7500:26:21.75+00:10:2115:303,9
92KOWAL Łukasz 2139Fitness Express RybnikRYBNIKM2019M 9200:00:0000:12:0600:26:27.8500:26:27.85+00:10:2815:333,9
93POTOCZNY Mirosław 2073JAWORZNOM4032M 9300:00:0000:12:4500:26:34.3000:26:34.30+00:10:3415:373,8
94SZNAJDER Rafał 2097G.O.A.T. Team MichałowiceMICHAŁOWICEM4033M 9400:00:0000:12:0800:27:36.5000:27:36.50+00:11:3616:143,7
95POJDA Grzegorz 2120Rybnicka Grupa Biegowa Pędzimy RazemRYBNIKM4034M 9500:00:0000:12:4300:27:45.0500:27:45.05+00:11:4516:193,7
96PIDANTY Łukasz 2023JASTRZĘBIE ZDRÓJM3037M 9600:00:0000:12:5900:29:03.2500:29:03.25+00:13:0317:053,5
97DZIEGUĆ Piotr 2087CZECHOWICE-DZIEDZICEM3038M 9700:00:0000:14:0300:29:30.8000:29:30.80+00:13:3117:213,5
98GUZDEK Tomasz 2039PSP BYTOMBYTOMM3039M 9800:00:0000:11:5400:29:43.3000:29:43.30+00:13:4317:283,4
99HELLER Szymon 2103BRENNAM3040M 9900:00:0000:14:2500:30:17.6500:30:17.65+00:14:1717:483,4
100MALINOWSKI Adrian 2027#czeladzbiegaBĘDZINM4035M 10000:00:0000:12:4200:30:30.5000:30:30.50+00:14:3017:563,3
101MATUSIAK Dawid 2040RYBNIKM3041M 10100:00:0000:13:1300:30:30.8000:30:30.80+00:14:3117:563,3
102RYBCZYŃSKI Jarosław 2133Dzikie Życie Run TeamSIEMIANOWICE ŚLĄSKIEM4036M 10200:00:0000:14:0600:30:58.0000:30:58.00+00:14:5818:123,3
103MĄDRZYK Daniel 2017IB TeamSOSNOWIECM3042M 10300:00:0000:15:1000:32:53.0000:32:53.00+00:16:5319:203,1
104ROGOSZ Marcin 2045SOCIOS SILESIARUDA ŚLĄSKAM4037M 10400:00:0000:15:2000:33:33.8000:33:33.80+00:17:3419:443,0
Niesklasyfikowani
SUDNIK Krzysztof 2077KNURÓWM30DNF00:09:56 DNF DNF DNF--
106CHYBIORZ Marek 2046CIESZYNM3044M 10600:00:0000:08:4200:20:07.6500:20:07.65+00:04:0711:505,1
107SKÓRA Marcin 2160M3045M 10700:00:0000:09:1600:21:26.3500:21:26.35+00:05:2612:364,8
108KURYŁO Paweł 2058AUGUSTÓWM4038M 10800:00:0000:09:5100:23:05.4000:23:05.40+00:07:0513:344,4
109CYMERLIK Krzysztof 2110ŻORYM506M 10900:00:0000:10:0800:23:07.5000:23:07.50+00:07:0713:354,4
110CABOS Dominik 2122ZAWOJAM4039M 11000:00:0000:10:2800:25:22.6000:25:22.60+00:09:2214:554,0
111CIOĆ Robert 2145ZABRZEM4040M 11100:00:0000:11:3000:25:24.5000:25:24.50+00:09:2414:564,0
112BERTINO Francesco 2076Cazzo Club Running TeamWARSZAWAM2020M 11200:00:0000:10:5700:26:06.1500:26:06.15+00:10:0615:213,9
113GOLKOWSKI Marcel 2108OSP Repty ŚląskieTARNOWSKIE GÓRYM2021M 11300:00:0000:11:2400:26:07.2000:26:07.20+00:10:0715:213,9
114KRUK Krzysztof 2072StrefaByków BytomZABRZEM4041M 11400:00:0000:12:0100:26:16.8000:26:16.80+00:10:1715:273,9
115WAWROCKI Jarosław 2155ZABRZEM4042M 11500:00:0000:11:5200:26:31.3500:26:31.35+00:10:3115:353,8
116PRYSZCZ Mirosław 2048RUDA ŚLĄSKAM4043M 11600:00:0000:11:4400:26:44.8500:26:44.85+00:10:4515:433,8
117HOMBEK Maciej 2125Uzdrowiskowy TeamUSTROŃM507M 11700:00:0000:12:2200:26:45.8000:26:45.80+00:10:4615:443,8
118STOLARCZYK Daniel 2095ZABIEGANY SKARYSZEWSKARYSZEWM4044M 11800:00:0000:11:3900:26:54.0500:26:54.05+00:10:5415:493,8
119OŻGA Sebastian 2149TYCHYM3046M 11900:00:0000:12:0600:26:56.0000:26:56.00+00:10:5615:503,8
120KOLANOWSKI Kacper 2107Wkurw TeamBRZESZCZEM2022M 12000:00:0000:11:0700:27:06.2000:27:06.20+00:11:0615:563,8
121LEWANDOWSKI Mateusz 2100TYCHYM3047M 12100:00:0000:11:2000:27:11.4500:27:11.45+00:11:1115:593,8
122DZIUBLA Bartłomiej 2015KAMIENIECM2023M 12200:00:0000:11:3000:27:15.7000:27:15.70+00:11:1516:013,7
123MATUSZCZYK Maciej 2031Czptychy.plKATOWICEM4045M 12300:00:0000:12:0000:27:19.0500:27:19.05+00:11:1916:043,7
124MALISZEWSKI Dariusz 2124JASTRZĘBIE ZDRÓJM3048M 12400:00:0000:12:1700:27:23.9500:27:23.95+00:11:2416:063,7
125LEWANDOWSKI Szymon 2055Piękin i BestieTYCHYM2024M 12500:00:0000:11:2700:27:34.7000:27:34.70+00:11:3416:123,7
126SCHMIDT Robert 2062ZABRZEM3049M 12600:00:0000:11:5800:27:39.6500:27:39.65+00:11:3916:153,7
127SWOBODA Jarosław 2043Night Runners GliwiceGLIWICEM4046M 12700:00:0000:12:3100:27:41.0500:27:41.05+00:11:4116:173,7
128DŁUGOSZ Marek 2093CHORZÓWM3050M 12800:00:0000:12:3300:27:47.5000:27:47.50+00:11:4716:203,7
129SZAREK Rafał 2119JAWORZNOM4047M 12900:00:0000:11:4700:28:10.2500:28:10.25+00:12:1016:343,6
130DZIKI Marek 2118ROGOŹNIKM3051M 13000:00:0000:12:5300:28:23.4000:28:23.40+00:12:2316:413,6
131PRÓBAN Robert 2099KATOWICEM3052M 13100:00:0000:12:1800:28:46.0500:28:46.05+00:12:4616:553,5
132SZYNWELSKI Michał 2057Lubię Burpees'yKATOWICEM3053M 13200:00:0000:11:5500:28:53.4500:28:53.45+00:12:5316:593,5
133GARBOŚ Cezary 2115ŻORYM508M 13300:00:0000:12:4200:29:25.8500:29:25.85+00:13:2617:183,5
134ŻUREK Patryk 2078TWORKÓWM3054M 13400:00:0000:12:2800:30:23.9000:30:23.90+00:14:2417:523,4
135KOPTA Jerzy 2112Cwałujące DziadkiKRAKÓWM602M 13500:00:0000:14:3500:30:58.6500:30:58.65+00:14:5818:123,3
136ŁOPUSIŃSKI Piotr 2152Cazzo Club Running TeamKRUKIM2025M 13600:00:0000:13:0900:31:43.9500:31:43.95+00:15:4418:393,2
137TRYKA Sebastian 2127Uzdrowiskowy TeamSKOCZÓWM3055M 13700:00:0000:14:2400:32:45.7000:32:45.70+00:16:4519:153,1
138BALBUS Michał 2159MiechowiceBYTOMM603M 13800:00:0000:14:3000:33:43.9500:33:43.95+00:17:4419:503,0
139JAWOREK Dariusz 2157Ekstremalne OTK na RelaksieGLIWICEM4048M 13900:00:0000:14:4700:34:53.3000:34:53.30+00:18:5320:312,9
140LIK Michał 2068RYBNIKM3056M 14000:00:0000:13:2500:35:35.5500:35:35.55+00:19:3520:552,9
141DULĘBA Bartosz 2140Uzdrowisko Ustroń Runing teamUSTROŃM3057M 14100:00:0000:14:2700:35:54.3000:35:54.30+00:19:5421:072,8
142KUCZEK Grzegorz 2129KeikoCZECHOWICE DZIEDZICEM4049M 14200:00:0000:15:0400:37:11.2500:37:11.25+00:21:1121:522,7
143HERCKA Krzysztof 2028RYBNIKM3058M 14300:00:0000:18:0900:45:19.2500:45:19.25+00:29:1926:392,3
LUŹNIAK Damian 2052SCI Górscy EntuzjaściPOGWIZDÓWM30DNF00:09:08 DNF DNF DNF--
Znaleziono 144 wynik(ów)